Aérodrome :
LOGIN :

S'inscrire | Disclaimer

   EN    FR    IT 

 










Légende :    VFR   VFR Marginal   IFR   IFR Intensif   IFR Très Intensif
Visi : 
Plafond : 
>= 8 km
>= 3000ft
5 à 8 km
1000 à 3000 ft
1500m à 5 km
500 à 1000 ft
800 à 1500m
200 à 500 ft
< 800m
< 200 ft
Symboles :   Orages  Brouillard  Fortes neiges  Fortes précipitations  Vent > 20 kt
SIGMETs :   Divers  Orages  Givrage  Turbulence  Onde Orograph.  Cendres Volcan.






- Altitude de l'aérodrome : 995 ft
- Code IATA : KTW


EPKT - Katowice

DERNIER METAR :
  • 141300Z VRB04KT CAVOK 19/07 Q1016

METARs EXPIRÉS :
  • 141230Z VRB03KT 9999 FEW049 19/07 Q1016
  • 141200Z 25004KT 150V290 CAVOK 19/07 Q1016
  • 141130Z 20005KT 150V240 9999 SCT047 19/07 Q1016
  • 141100Z 21006KT 160V230 9999 SCT043 18/07 Q1016
  • 141030Z VRB04KT 9999 SCT037 18/07 Q1016
  • 141000Z 18005KT 150V250 9999 FEW036 17/08 Q1016
  • 140930Z 19005KT 140V280 9999 FEW029 SCT033 17/08 Q1016
  • 140900Z VRB02KT 9999 SCT021 BKN045 16/10 Q1016
  • 140830Z 15003KT 110V200 9999 SCT020 BKN024 15/09 Q1017

TAF TAF EPKT
Valide du 14 à 12h jusqu'au 15 à 12h UTC


141130Z 1412/1512 22005KT 9999 SCT045
BECMG 1505/1508 15010KT



MET'MAP, la Météo Aéronautique d'un coup d'oeil ! - Copyright ORBIFLY Décembre 2007 - Disclaimer

ORBIFLY MET'MAP TEAM :

Programmation & Développement : Alexandra Zaïnal
Sur une idée originale de : Baudouin d'Aumeries
Soutien technique & logistique : Manuel Goepfert
Assistance : Marc-Olivier Méhu




SOURCES & CREDITS :

   NOAA